sensor_id;sensor_type;location;lat;lon;timestamp;P1;durP1;ratioP1;P2;durP2;ratioP2
18544;SDS011;9402;51.460;7.276;2023-03-23T00:00:12;9.97;;;4.40;;
18544;SDS011;9402;51.460;7.276;2023-03-23T00:02:17;9.63;;;4.60;;
18544;SDS011;9402;51.460;7.276;2023-03-23T00:04:19;8.30;;;4.23;;
18544;SDS011;9402;51.460;7.276;2023-03-23T00:06:23;12.20;;;4.07;;
18544;SDS011;9402;51.460;7.276;2023-03-23T00:08:26;10.33;;;4.13;;
18544;SDS011;9402;51.460;7.276;2023-03-23T00:10:28;10.07;;;4.50;;
18544;SDS011;9402;51.460;7.276;2023-03-23T00:12:33;10.67;;;4.13;;
18544;SDS011;9402;51.460;7.276;2023-03-23T00:14:35;15.47;;;4.27;;
18544;SDS011;9402;51.460;7.276;2023-03-23T00:16:41;8.23;;;4.00;;
18544;SDS011;9402;51.460;7.276;2023-03-23T00:18:46;14.80;;;4.53;;
18544;SDS011;9402;51.460;7.276;2023-03-23T00:20:52;16.60;;;5.10;;
18544;SDS011;9402;51.460;7.276;2023-03-23T00:22:56;13.17;;;4.50;;
18544;SDS011;9402;51.460;7.276;2023-03-23T00:25:00;7.67;;;4.07;;
18544;SDS011;9402;51.460;7.276;2023-03-23T00:27:03;8.40;;;4.17;;
18544;SDS011;9402;51.460;7.276;2023-03-23T00:29:06;8.13;;;3.43;;
18544;SDS011;9402;51.460;7.276;2023-03-23T00:31:17;9.97;;;3.80;;
18544;SDS011;9402;51.460;7.276;2023-03-23T00:33:19;8.37;;;3.47;;
18544;SDS011;9402;51.460;7.276;2023-03-23T00:35:24;9.53;;;3.43;;
18544;SDS011;9402;51.460;7.276;2023-03-23T00:37:27;7.53;;;3.63;;
18544;SDS011;9402;51.460;7.276;2023-03-23T00:39:30;14.83;;;3.70;;
18544;SDS011;9402;51.460;7.276;2023-03-23T00:41:32;7.83;;;3.50;;
18544;SDS011;9402;51.460;7.276;2023-03-23T00:43:36;6.63;;;2.80;;
18544;SDS011;9402;51.460;7.276;2023-03-23T00:45:39;7.80;;;3.53;;
18544;SDS011;9402;51.460;7.276;2023-03-23T00:47:41;8.30;;;3.20;;
18544;SDS011;9402;51.460;7.276;2023-03-23T00:49:46;12.30;;;2.93;;
18544;SDS011;9402;51.460;7.276;2023-03-23T00:51:51;7.10;;;2.60;;
18544;SDS011;9402;51.460;7.276;2023-03-23T00:53:54;10.07;;;2.80;;
18544;SDS011;9402;51.460;7.276;2023-03-23T00:55:56;5.30;;;2.77;;
18544;SDS011;9402;51.460;7.276;2023-03-23T00:57:59;9.50;;;3.00;;
18544;SDS011;9402;51.460;7.276;2023-03-23T01:00:01;5.10;;;2.70;;
18544;SDS011;9402;51.460;7.276;2023-03-23T01:02:08;7.80;;;3.10;;
18544;SDS011;9402;51.460;7.276;2023-03-23T01:04:11;8.90;;;3.03;;
18544;SDS011;9402;51.460;7.276;2023-03-23T01:06:14;6.40;;;2.50;;
18544;SDS011;9402;51.460;7.276;2023-03-23T01:08:18;6.23;;;2.50;;
18544;SDS011;9402;51.460;7.276;2023-03-23T01:10:21;14.60;;;2.50;;
18544;SDS011;9402;51.460;7.276;2023-03-23T01:12:26;6.20;;;2.90;;
18544;SDS011;9402;51.460;7.276;2023-03-23T01:14:28;6.47;;;2.27;;
18544;SDS011;9402;51.460;7.276;2023-03-23T01:16:31;5.33;;;2.40;;
18544;SDS011;9402;51.460;7.276;2023-03-23T01:18:33;6.53;;;2.27;;
18544;SDS011;9402;51.460;7.276;2023-03-23T01:20:36;8.10;;;3.03;;
18544;SDS011;9402;51.460;7.276;2023-03-23T01:22:39;5.00;;;2.60;;
18544;SDS011;9402;51.460;7.276;2023-03-23T01:24:43;8.13;;;3.30;;
18544;SDS011;9402;51.460;7.276;2023-03-23T01:26:45;13.17;;;3.20;;
18544;SDS011;9402;51.460;7.276;2023-03-23T01:28:48;4.77;;;2.43;;
18544;SDS011;9402;51.460;7.276;2023-03-23T01:30:50;6.30;;;2.70;;
18544;SDS011;9402;51.460;7.276;2023-03-23T01:32:53;7.53;;;2.83;;
18544;SDS011;9402;51.460;7.276;2023-03-23T01:34:56;14.77;;;3.13;;
18544;SDS011;9402;51.460;7.276;2023-03-23T01:36:59;4.73;;;2.57;;
18544;SDS011;9402;51.460;7.276;2023-03-23T01:39:02;6.20;;;2.23;;
18544;SDS011;9402;51.460;7.276;2023-03-23T01:41:07;7.60;;;2.63;;
18544;SDS011;9402;51.460;7.276;2023-03-23T01:43:10;7.23;;;3.40;;
18544;SDS011;9402;51.460;7.276;2023-03-23T01:45:23;8.50;;;2.87;;
18544;SDS011;9402;51.460;7.276;2023-03-23T01:47:28;12.83;;;2.80;;
18544;SDS011;9402;51.460;7.276;2023-03-23T01:49:31;7.50;;;2.97;;
18544;SDS011;9402;51.460;7.276;2023-03-23T01:51:37;6.50;;;2.83;;
18544;SDS011;9402;51.460;7.276;2023-03-23T01:53:42;5.07;;;2.57;;
18544;SDS011;9402;51.460;7.276;2023-03-23T01:55:45;9.93;;;2.53;;
18544;SDS011;9402;51.460;7.276;2023-03-23T01:57:51;5.30;;;2.93;;
18544;SDS011;9402;51.460;7.276;2023-03-23T01:59:55;5.47;;;2.10;;
18544;SDS011;9402;51.460;7.276;2023-03-23T02:01:59;5.33;;;2.80;;
18544;SDS011;9402;51.460;7.276;2023-03-23T02:04:02;6.70;;;2.67;;
18544;SDS011;9402;51.460;7.276;2023-03-23T02:06:05;4.40;;;2.30;;
18544;SDS011;9402;51.460;7.276;2023-03-23T02:08:08;5.57;;;2.50;;
18544;SDS011;9402;51.460;7.276;2023-03-23T02:10:13;6.40;;;2.07;;
18544;SDS011;9402;51.460;7.276;2023-03-23T02:12:16;8.33;;;2.43;;
18544;SDS011;9402;51.460;7.276;2023-03-23T02:14:19;10.97;;;2.60;;
18544;SDS011;9402;51.460;7.276;2023-03-23T02:16:25;6.30;;;2.20;;
18544;SDS011;9402;51.460;7.276;2023-03-23T02:18:38;8.50;;;2.00;;
18544;SDS011;9402;51.460;7.276;2023-03-23T02:20:54;6.07;;;2.07;;
18544;SDS011;9402;51.460;7.276;2023-03-23T02:23:31;6.63;;;1.83;;
18544;SDS011;9402;51.460;7.276;2023-03-23T02:26:03;4.57;;;2.10;;
18544;SDS011;9402;51.460;7.276;2023-03-23T02:28:19;5.70;;;2.37;;
18544;SDS011;9402;51.460;7.276;2023-03-23T02:30:38;4.77;;;2.60;;
18544;SDS011;9402;51.460;7.276;2023-03-23T02:32:54;8.33;;;2.57;;
18544;SDS011;9402;51.460;7.276;2023-03-23T02:35:21;6.93;;;2.93;;
18544;SDS011;9402;51.460;7.276;2023-03-23T02:37:26;7.47;;;2.70;;
18544;SDS011;9402;51.460;7.276;2023-03-23T02:39:30;8.20;;;2.43;;
18544;SDS011;9402;51.460;7.276;2023-03-23T02:41:36;5.47;;;2.50;;
18544;SDS011;9402;51.460;7.276;2023-03-23T02:43:42;7.63;;;2.20;;
18544;SDS011;9402;51.460;7.276;2023-03-23T02:45:46;5.93;;;2.30;;
18544;SDS011;9402;51.460;7.276;2023-03-23T02:47:49;9.57;;;2.60;;
18544;SDS011;9402;51.460;7.276;2023-03-23T02:49:54;3.67;;;2.17;;
18544;SDS011;9402;51.460;7.276;2023-03-23T02:52:00;5.80;;;2.20;;
18544;SDS011;9402;51.460;7.276;2023-03-23T02:54:05;5.30;;;2.43;;
18544;SDS011;9402;51.460;7.276;2023-03-23T02:56:09;7.23;;;2.53;;
18544;SDS011;9402;51.460;7.276;2023-03-23T02:58:12;5.73;;;2.43;;
18544;SDS011;9402;51.460;7.276;2023-03-23T03:00:16;10.13;;;2.37;;
18544;SDS011;9402;51.460;7.276;2023-03-23T03:02:19;9.73;;;2.80;;
18544;SDS011;9402;51.460;7.276;2023-03-23T03:04:23;4.70;;;2.57;;
18544;SDS011;9402;51.460;7.276;2023-03-23T03:06:27;7.50;;;3.07;;
18544;SDS011;9402;51.460;7.276;2023-03-23T03:08:37;6.37;;;2.20;;
18544;SDS011;9402;51.460;7.276;2023-03-23T03:10:48;8.10;;;2.53;;
18544;SDS011;9402;51.460;7.276;2023-03-23T03:12:54;5.53;;;2.43;;
18544;SDS011;9402;51.460;7.276;2023-03-23T03:15:04;4.33;;;2.00;;
18544;SDS011;9402;51.460;7.276;2023-03-23T03:17:12;8.17;;;3.00;;
18544;SDS011;9402;51.460;7.276;2023-03-23T03:19:19;4.83;;;2.30;;
18544;SDS011;9402;51.460;7.276;2023-03-23T03:21:26;5.30;;;2.53;;
18544;SDS011;9402;51.460;7.276;2023-03-23T03:23:30;7.70;;;3.00;;
18544;SDS011;9402;51.460;7.276;2023-03-23T03:25:35;7.90;;;3.00;;
18544;SDS011;9402;51.460;7.276;2023-03-23T03:27:38;6.60;;;2.63;;
18544;SDS011;9402;51.460;7.276;2023-03-23T03:29:41;7.77;;;2.10;;
18544;SDS011;9402;51.460;7.276;2023-03-23T03:31:47;5.27;;;2.50;;
18544;SDS011;9402;51.460;7.276;2023-03-23T03:33:51;4.53;;;2.33;;
18544;SDS011;9402;51.460;7.276;2023-03-23T03:35:54;5.67;;;2.60;;
18544;SDS011;9402;51.460;7.276;2023-03-23T03:38:04;7.77;;;2.13;;
18544;SDS011;9402;51.460;7.276;2023-03-23T03:40:08;5.30;;;2.23;;
18544;SDS011;9402;51.460;7.276;2023-03-23T03:42:14;4.97;;;2.27;;
18544;SDS011;9402;51.460;7.276;2023-03-23T03:44:16;4.83;;;1.73;;
18544;SDS011;9402;51.460;7.276;2023-03-23T03:46:19;5.83;;;2.27;;
18544;SDS011;9402;51.460;7.276;2023-03-23T03:48:21;4.67;;;1.70;;
18544;SDS011;9402;51.460;7.276;2023-03-23T03:50:23;5.80;;;1.53;;
18544;SDS011;9402;51.460;7.276;2023-03-23T03:52:26;5.10;;;2.47;;
18544;SDS011;9402;51.460;7.276;2023-03-23T03:54:29;5.40;;;1.80;;
18544;SDS011;9402;51.460;7.276;2023-03-23T03:56:31;6.60;;;2.00;;
18544;SDS011;9402;51.460;7.276;2023-03-23T03:58:37;5.60;;;1.70;;
18544;SDS011;9402;51.460;7.276;2023-03-23T04:00:42;6.00;;;2.00;;
18544;SDS011;9402;51.460;7.276;2023-03-23T04:02:48;6.00;;;2.00;;
18544;SDS011;9402;51.460;7.276;2023-03-23T04:04:54;3.30;;;1.40;;
18544;SDS011;9402;51.460;7.276;2023-03-23T04:06:56;4.27;;;1.40;;
18544;SDS011;9402;51.460;7.276;2023-03-23T04:08:58;5.83;;;1.90;;
18544;SDS011;9402;51.460;7.276;2023-03-23T04:11:05;5.80;;;2.00;;
18544;SDS011;9402;51.460;7.276;2023-03-23T04:13:08;4.30;;;1.80;;
18544;SDS011;9402;51.460;7.276;2023-03-23T04:15:12;8.40;;;2.17;;
18544;SDS011;9402;51.460;7.276;2023-03-23T04:17:14;4.43;;;1.80;;
18544;SDS011;9402;51.460;7.276;2023-03-23T04:19:17;3.90;;;1.73;;
18544;SDS011;9402;51.460;7.276;2023-03-23T04:21:19;4.63;;;1.70;;
18544;SDS011;9402;51.460;7.276;2023-03-23T04:23:22;4.10;;;1.60;;
18544;SDS011;9402;51.460;7.276;2023-03-23T04:25:24;4.37;;;2.00;;
18544;SDS011;9402;51.460;7.276;2023-03-23T04:27:27;3.60;;;1.80;;
18544;SDS011;9402;51.460;7.276;2023-03-23T04:29:30;4.20;;;1.80;;
18544;SDS011;9402;51.460;7.276;2023-03-23T04:31:35;3.67;;;1.63;;
18544;SDS011;9402;51.460;7.276;2023-03-23T04:33:37;4.13;;;2.00;;
18544;SDS011;9402;51.460;7.276;2023-03-23T04:35:41;4.10;;;1.60;;
18544;SDS011;9402;51.460;7.276;2023-03-23T04:37:46;4.10;;;1.63;;
18544;SDS011;9402;51.460;7.276;2023-03-23T04:39:48;3.77;;;1.60;;
18544;SDS011;9402;51.460;7.276;2023-03-23T04:42:00;6.33;;;2.30;;
18544;SDS011;9402;51.460;7.276;2023-03-23T04:44:03;5.40;;;1.73;;
18544;SDS011;9402;51.460;7.276;2023-03-23T04:46:06;6.80;;;1.90;;
18544;SDS011;9402;51.460;7.276;2023-03-23T04:48:11;4.30;;;1.67;;
18544;SDS011;9402;51.460;7.276;2023-03-23T04:50:13;4.80;;;1.97;;
18544;SDS011;9402;51.460;7.276;2023-03-23T04:52:17;4.93;;;2.00;;
18544;SDS011;9402;51.460;7.276;2023-03-23T04:54:20;5.10;;;1.70;;
18544;SDS011;9402;51.460;7.276;2023-03-23T04:56:22;3.57;;;1.83;;
18544;SDS011;9402;51.460;7.276;2023-03-23T04:58:25;6.67;;;2.00;;
18544;SDS011;9402;51.460;7.276;2023-03-23T05:00:28;6.20;;;2.00;;
18544;SDS011;9402;51.460;7.276;2023-03-23T05:02:30;3.43;;;1.60;;
18544;SDS011;9402;51.460;7.276;2023-03-23T05:04:35;3.83;;;1.77;;
18544;SDS011;9402;51.460;7.276;2023-03-23T05:06:38;3.67;;;1.90;;
18544;SDS011;9402;51.460;7.276;2023-03-23T05:08:41;2.90;;;1.23;;
18544;SDS011;9402;51.460;7.276;2023-03-23T05:10:49;6.03;;;2.00;;
18544;SDS011;9402;51.460;7.276;2023-03-23T05:12:52;5.27;;;1.77;;
18544;SDS011;9402;51.460;7.276;2023-03-23T05:14:55;6.00;;;2.07;;
18544;SDS011;9402;51.460;7.276;2023-03-23T05:16:57;6.67;;;1.60;;
18544;SDS011;9402;51.460;7.276;2023-03-23T05:19:00;5.87;;;2.37;;
18544;SDS011;9402;51.460;7.276;2023-03-23T05:21:04;4.47;;;1.80;;
18544;SDS011;9402;51.460;7.276;2023-03-23T05:23:06;3.37;;;1.30;;
18544;SDS011;9402;51.460;7.276;2023-03-23T05:25:08;5.30;;;1.87;;
18544;SDS011;9402;51.460;7.276;2023-03-23T05:27:11;5.33;;;1.47;;
18544;SDS011;9402;51.460;7.276;2023-03-23T05:29:14;6.37;;;1.90;;
18544;SDS011;9402;51.460;7.276;2023-03-23T05:31:17;5.07;;;1.73;;
18544;SDS011;9402;51.460;7.276;2023-03-23T05:33:19;4.63;;;1.73;;
18544;SDS011;9402;51.460;7.276;2023-03-23T05:35:21;5.50;;;1.60;;
18544;SDS011;9402;51.460;7.276;2023-03-23T05:37:25;3.47;;;1.70;;
18544;SDS011;9402;51.460;7.276;2023-03-23T05:39:32;5.70;;;2.00;;
18544;SDS011;9402;51.460;7.276;2023-03-23T05:41:34;4.50;;;2.00;;
18544;SDS011;9402;51.460;7.276;2023-03-23T05:43:37;5.27;;;1.70;;
18544;SDS011;9402;51.460;7.276;2023-03-23T05:45:40;6.10;;;2.00;;
18544;SDS011;9402;51.460;7.276;2023-03-23T05:47:42;6.20;;;1.90;;
18544;SDS011;9402;51.460;7.276;2023-03-23T05:49:45;3.70;;;1.60;;
18544;SDS011;9402;51.460;7.276;2023-03-23T05:51:47;6.93;;;1.83;;
18544;SDS011;9402;51.460;7.276;2023-03-23T05:53:51;4.70;;;1.87;;
18544;SDS011;9402;51.460;7.276;2023-03-23T05:55:57;5.83;;;1.90;;
18544;SDS011;9402;51.460;7.276;2023-03-23T05:58:00;3.20;;;1.60;;
18544;SDS011;9402;51.460;7.276;2023-03-23T06:00:03;4.43;;;1.77;;
18544;SDS011;9402;51.460;7.276;2023-03-23T06:02:11;5.37;;;1.93;;
18544;SDS011;9402;51.460;7.276;2023-03-23T06:04:14;5.93;;;2.40;;
18544;SDS011;9402;51.460;7.276;2023-03-23T06:06:17;4.50;;;1.93;;
18544;SDS011;9402;51.460;7.276;2023-03-23T06:08:19;6.10;;;1.70;;
18544;SDS011;9402;51.460;7.276;2023-03-23T06:10:24;5.77;;;2.10;;
18544;SDS011;9402;51.460;7.276;2023-03-23T06:12:27;4.07;;;2.00;;
18544;SDS011;9402;51.460;7.276;2023-03-23T06:14:29;8.07;;;2.00;;
18544;SDS011;9402;51.460;7.276;2023-03-23T06:16:32;7.10;;;2.30;;
18544;SDS011;9402;51.460;7.276;2023-03-23T06:18:34;7.40;;;1.80;;
18544;SDS011;9402;51.460;7.276;2023-03-23T06:20:37;8.27;;;2.03;;
18544;SDS011;9402;51.460;7.276;2023-03-23T06:22:39;4.87;;;2.00;;
18544;SDS011;9402;51.460;7.276;2023-03-23T06:24:41;4.90;;;2.10;;
18544;SDS011;9402;51.460;7.276;2023-03-23T06:26:46;5.77;;;1.97;;
18544;SDS011;9402;51.460;7.276;2023-03-23T06:28:48;3.83;;;1.80;;
18544;SDS011;9402;51.460;7.276;2023-03-23T06:30:51;4.93;;;1.73;;
18544;SDS011;9402;51.460;7.276;2023-03-23T06:32:53;5.57;;;2.03;;
18544;SDS011;9402;51.460;7.276;2023-03-23T06:34:57;3.97;;;2.03;;
18544;SDS011;9402;51.460;7.276;2023-03-23T06:36:59;4.20;;;1.87;;
18544;SDS011;9402;51.460;7.276;2023-03-23T06:39:02;7.10;;;2.27;;
18544;SDS011;9402;51.460;7.276;2023-03-23T06:41:05;5.30;;;2.00;;
18544;SDS011;9402;51.460;7.276;2023-03-23T06:43:10;6.87;;;2.60;;
18544;SDS011;9402;51.460;7.276;2023-03-23T06:45:12;5.20;;;2.00;;
18544;SDS011;9402;51.460;7.276;2023-03-23T06:47:15;7.23;;;2.50;;
18544;SDS011;9402;51.460;7.276;2023-03-23T06:49:17;5.40;;;1.90;;
18544;SDS011;9402;51.460;7.276;2023-03-23T06:51:19;4.90;;;2.20;;
18544;SDS011;9402;51.460;7.276;2023-03-23T06:53:22;9.43;;;2.60;;
18544;SDS011;9402;51.460;7.276;2023-03-23T06:55:24;5.17;;;2.20;;
18544;SDS011;9402;51.460;7.276;2023-03-23T06:57:27;4.90;;;2.30;;
18544;SDS011;9402;51.460;7.276;2023-03-23T06:59:31;8.80;;;2.60;;
18544;SDS011;9402;51.460;7.276;2023-03-23T07:01:33;6.10;;;2.10;;
18544;SDS011;9402;51.460;7.276;2023-03-23T07:03:36;9.03;;;1.93;;
18544;SDS011;9402;51.460;7.276;2023-03-23T07:05:39;15.00;;;2.67;;
18544;SDS011;9402;51.460;7.276;2023-03-23T07:07:41;6.60;;;2.37;;
18544;SDS011;9402;51.460;7.276;2023-03-23T07:09:44;7.70;;;2.50;;
18544;SDS011;9402;51.460;7.276;2023-03-23T07:11:46;6.47;;;2.00;;
18544;SDS011;9402;51.460;7.276;2023-03-23T07:13:51;4.10;;;2.20;;
18544;SDS011;9402;51.460;7.276;2023-03-23T07:15:55;3.50;;;1.57;;
18544;SDS011;9402;51.460;7.276;2023-03-23T07:17:57;6.00;;;2.20;;
18544;SDS011;9402;51.460;7.276;2023-03-23T07:20:00;4.80;;;1.80;;
18544;SDS011;9402;51.460;7.276;2023-03-23T07:22:03;8.63;;;2.20;;
18544;SDS011;9402;51.460;7.276;2023-03-23T07:24:08;9.73;;;2.40;;
18544;SDS011;9402;51.460;7.276;2023-03-23T07:26:12;4.87;;;1.80;;
18544;SDS011;9402;51.460;7.276;2023-03-23T07:28:15;6.33;;;1.87;;
18544;SDS011;9402;51.460;7.276;2023-03-23T07:30:18;8.90;;;2.50;;
18544;SDS011;9402;51.460;7.276;2023-03-23T07:32:22;7.27;;;1.93;;
18544;SDS011;9402;51.460;7.276;2023-03-23T07:34:25;6.97;;;1.97;;
18544;SDS011;9402;51.460;7.276;2023-03-23T07:36:27;11.77;;;2.40;;
18544;SDS011;9402;51.460;7.276;2023-03-23T07:38:30;8.43;;;1.70;;
18544;SDS011;9402;51.460;7.276;2023-03-23T07:40:32;6.37;;;1.80;;
18544;SDS011;9402;51.460;7.276;2023-03-23T07:42:35;5.27;;;1.87;;
18544;SDS011;9402;51.460;7.276;2023-03-23T07:44:37;8.80;;;2.17;;
18544;SDS011;9402;51.460;7.276;2023-03-23T07:46:39;7.47;;;2.00;;
18544;SDS011;9402;51.460;7.276;2023-03-23T07:48:44;7.50;;;2.00;;
18544;SDS011;9402;51.460;7.276;2023-03-23T07:50:47;6.97;;;2.20;;
18544;SDS011;9402;51.460;7.276;2023-03-23T07:52:49;6.90;;;2.00;;
18544;SDS011;9402;51.460;7.276;2023-03-23T07:54:52;7.50;;;1.80;;
18544;SDS011;9402;51.460;7.276;2023-03-23T07:56:55;5.07;;;1.60;;
18544;SDS011;9402;51.460;7.276;2023-03-23T07:58:57;6.60;;;1.80;;
18544;SDS011;9402;51.460;7.276;2023-03-23T08:01:00;7.73;;;2.10;;
18544;SDS011;9402;51.460;7.276;2023-03-23T08:03:04;8.67;;;2.10;;
18544;SDS011;9402;51.460;7.276;2023-03-23T08:05:08;9.20;;;1.80;;
18544;SDS011;9402;51.460;7.276;2023-03-23T08:07:13;6.97;;;1.80;;
18544;SDS011;9402;51.460;7.276;2023-03-23T08:09:16;7.03;;;1.80;;
18544;SDS011;9402;51.460;7.276;2023-03-23T08:11:18;7.73;;;2.20;;
18544;SDS011;9402;51.460;7.276;2023-03-23T08:13:21;4.00;;;1.40;;
18544;SDS011;9402;51.460;7.276;2023-03-23T08:15:24;5.63;;;1.47;;
18544;SDS011;9402;51.460;7.276;2023-03-23T08:17:27;7.27;;;1.80;;
18544;SDS011;9402;51.460;7.276;2023-03-23T08:19:29;5.80;;;1.40;;
18544;SDS011;9402;51.460;7.276;2023-03-23T08:21:38;4.20;;;1.40;;
18544;SDS011;9402;51.460;7.276;2023-03-23T08:23:40;4.77;;;1.70;;
18544;SDS011;9402;51.460;7.276;2023-03-23T08:25:43;4.57;;;1.60;;
18544;SDS011;9402;51.460;7.276;2023-03-23T08:27:46;10.17;;;2.00;;
18544;SDS011;9402;51.460;7.276;2023-03-23T08:29:48;9.87;;;1.63;;
18544;SDS011;9402;51.460;7.276;2023-03-23T08:31:51;8.87;;;2.63;;
18544;SDS011;9402;51.460;7.276;2023-03-23T08:33:53;8.17;;;2.00;;
18544;SDS011;9402;51.460;7.276;2023-03-23T08:35:56;6.40;;;1.80;;
18544;SDS011;9402;51.460;7.276;2023-03-23T08:38:01;6.53;;;2.20;;
18544;SDS011;9402;51.460;7.276;2023-03-23T08:40:05;7.20;;;1.63;;
18544;SDS011;9402;51.460;7.276;2023-03-23T08:42:09;7.50;;;1.53;;
18544;SDS011;9402;51.460;7.276;2023-03-23T08:44:12;11.87;;;2.07;;
18544;SDS011;9402;51.460;7.276;2023-03-23T08:46:14;7.10;;;1.50;;
18544;SDS011;9402;51.460;7.276;2023-03-23T08:48:18;7.63;;;1.80;;
18544;SDS011;9402;51.460;7.276;2023-03-23T08:50:21;7.33;;;1.93;;
18544;SDS011;9402;51.460;7.276;2023-03-23T08:52:24;7.67;;;1.60;;
18544;SDS011;9402;51.460;7.276;2023-03-23T08:54:28;8.80;;;1.93;;
18544;SDS011;9402;51.460;7.276;2023-03-23T08:56:31;9.60;;;2.00;;
18544;SDS011;9402;51.460;7.276;2023-03-23T08:58:33;6.13;;;1.50;;
18544;SDS011;9402;51.460;7.276;2023-03-23T09:00:36;7.33;;;1.73;;
18544;SDS011;9402;51.460;7.276;2023-03-23T09:02:39;6.03;;;1.80;;
18544;SDS011;9402;51.460;7.276;2023-03-23T09:04:42;8.20;;;2.00;;
18544;SDS011;9402;51.460;7.276;2023-03-23T09:06:44;5.20;;;1.60;;
18544;SDS011;9402;51.460;7.276;2023-03-23T09:08:46;5.30;;;1.83;;
18544;SDS011;9402;51.460;7.276;2023-03-23T09:10:51;11.70;;;1.80;;
18544;SDS011;9402;51.460;7.276;2023-03-23T09:12:53;12.07;;;2.47;;
18544;SDS011;9402;51.460;7.276;2023-03-23T09:14:56;11.10;;;1.93;;
18544;SDS011;9402;51.460;7.276;2023-03-23T09:16:58;5.93;;;1.70;;
18544;SDS011;9402;51.460;7.276;2023-03-23T09:19:01;6.33;;;1.70;;
18544;SDS011;9402;51.460;7.276;2023-03-23T09:21:03;10.87;;;1.63;;
18544;SDS011;9402;51.460;7.276;2023-03-23T09:23:06;10.70;;;1.80;;
18544;SDS011;9402;51.460;7.276;2023-03-23T09:25:09;7.40;;;1.73;;
18544;SDS011;9402;51.460;7.276;2023-03-23T09:27:14;8.77;;;2.00;;
18544;SDS011;9402;51.460;7.276;2023-03-23T09:29:16;9.00;;;1.70;;
18544;SDS011;9402;51.460;7.276;2023-03-23T09:31:19;9.10;;;1.90;;
18544;SDS011;9402;51.460;7.276;2023-03-23T09:33:22;8.20;;;1.80;;
18544;SDS011;9402;51.460;7.276;2023-03-23T09:35:24;8.27;;;2.40;;
18544;SDS011;9402;51.460;7.276;2023-03-23T09:37:28;12.70;;;1.40;;
18544;SDS011;9402;51.460;7.276;2023-03-23T09:39:31;7.77;;;1.63;;
18544;SDS011;9402;51.460;7.276;2023-03-23T09:41:38;5.87;;;1.93;;
18544;SDS011;9402;51.460;7.276;2023-03-23T09:43:59;8.67;;;1.67;;
18544;SDS011;9402;51.460;7.276;2023-03-23T09:46:09;10.63;;;2.50;;
18544;SDS011;9402;51.460;7.276;2023-03-23T09:48:29;12.70;;;1.97;;
18544;SDS011;9402;51.460;7.276;2023-03-23T09:50:37;15.33;;;2.23;;
18544;SDS011;9402;51.460;7.276;2023-03-23T09:52:44;5.90;;;2.03;;
18544;SDS011;9402;51.460;7.276;2023-03-23T09:54:49;7.20;;;2.10;;
18544;SDS011;9402;51.460;7.276;2023-03-23T09:56:52;10.03;;;2.00;;
18544;SDS011;9402;51.460;7.276;2023-03-23T09:58:58;8.63;;;1.90;;
18544;SDS011;9402;51.460;7.276;2023-03-23T10:01:05;8.60;;;1.90;;
18544;SDS011;9402;51.460;7.276;2023-03-23T10:03:10;9.23;;;1.80;;
18544;SDS011;9402;51.460;7.276;2023-03-23T10:05:22;8.17;;;2.00;;
18544;SDS011;9402;51.460;7.276;2023-03-23T10:07:30;11.60;;;2.13;;
18544;SDS011;9402;51.460;7.276;2023-03-23T10:09:33;9.63;;;2.50;;
18544;SDS011;9402;51.460;7.276;2023-03-23T10:11:51;6.37;;;2.27;;
18544;SDS011;9402;51.460;7.276;2023-03-23T10:14:03;12.00;;;2.53;;
18544;SDS011;9402;51.460;7.276;2023-03-23T10:16:13;9.43;;;1.90;;
18544;SDS011;9402;51.460;7.276;2023-03-23T10:18:18;8.43;;;2.00;;
18544;SDS011;9402;51.460;7.276;2023-03-23T10:20:28;18.10;;;2.50;;
18544;SDS011;9402;51.460;7.276;2023-03-23T10:22:46;8.17;;;2.30;;
18544;SDS011;9402;51.460;7.276;2023-03-23T10:24:55;8.90;;;2.10;;
18544;SDS011;9402;51.460;7.276;2023-03-23T10:27:01;8.50;;;2.30;;
18544;SDS011;9402;51.460;7.276;2023-03-23T10:29:17;8.40;;;1.83;;
18544;SDS011;9402;51.460;7.276;2023-03-23T10:31:23;5.10;;;1.67;;
18544;SDS011;9402;51.460;7.276;2023-03-23T10:33:29;6.70;;;1.53;;
18544;SDS011;9402;51.460;7.276;2023-03-23T10:35:37;10.03;;;1.87;;
18544;SDS011;9402;51.460;7.276;2023-03-23T10:37:45;8.73;;;2.10;;
18544;SDS011;9402;51.460;7.276;2023-03-23T10:39:51;8.10;;;1.50;;
18544;SDS011;9402;51.460;7.276;2023-03-23T10:41:55;4.70;;;1.60;;
18544;SDS011;9402;51.460;7.276;2023-03-23T10:44:07;6.00;;;1.67;;
18544;SDS011;9402;51.460;7.276;2023-03-23T10:46:14;5.60;;;1.23;;
18544;SDS011;9402;51.460;7.276;2023-03-23T10:48:25;6.27;;;1.40;;
18544;SDS011;9402;51.460;7.276;2023-03-23T10:50:33;5.87;;;1.30;;
18544;SDS011;9402;51.460;7.276;2023-03-23T10:52:37;8.03;;;1.40;;
18544;SDS011;9402;51.460;7.276;2023-03-23T10:54:46;3.70;;;1.23;;
18544;SDS011;9402;51.460;7.276;2023-03-23T10:56:52;3.87;;;1.40;;
18544;SDS011;9402;51.460;7.276;2023-03-23T10:58:55;4.60;;;1.20;;
18544;SDS011;9402;51.460;7.276;2023-03-23T11:00:59;3.70;;;1.27;;
18544;SDS011;9402;51.460;7.276;2023-03-23T11:03:05;5.93;;;1.63;;
18544;SDS011;9402;51.460;7.276;2023-03-23T11:05:23;7.17;;;1.93;;
18544;SDS011;9402;51.460;7.276;2023-03-23T11:07:29;8.50;;;1.70;;
18544;SDS011;9402;51.460;7.276;2023-03-23T11:09:35;6.53;;;1.57;;
18544;SDS011;9402;51.460;7.276;2023-03-23T11:11:39;5.10;;;1.80;;
18544;SDS011;9402;51.460;7.276;2023-03-23T11:13:45;3.73;;;1.63;;
18544;SDS011;9402;51.460;7.276;2023-03-23T11:15:50;10.33;;;2.20;;
18544;SDS011;9402;51.460;7.276;2023-03-23T11:17:56;9.30;;;2.40;;
18544;SDS011;9402;51.460;7.276;2023-03-23T11:20:10;14.27;;;2.60;;
18544;SDS011;9402;51.460;7.276;2023-03-23T11:22:16;12.17;;;2.40;;
18544;SDS011;9402;51.460;7.276;2023-03-23T11:24:22;4.20;;;2.00;;
18544;SDS011;9402;51.460;7.276;2023-03-23T11:26:26;5.23;;;1.97;;
18544;SDS011;9402;51.460;7.276;2023-03-23T11:28:30;3.67;;;1.60;;
18544;SDS011;9402;51.460;7.276;2023-03-23T11:30:34;8.30;;;2.40;;
18544;SDS011;9402;51.460;7.276;2023-03-23T11:32:36;9.23;;;2.33;;
18544;SDS011;9402;51.460;7.276;2023-03-23T11:34:40;5.33;;;2.87;;
18544;SDS011;9402;51.460;7.276;2023-03-23T11:36:48;10.10;;;3.37;;
18544;SDS011;9402;51.460;7.276;2023-03-23T11:38:53;8.27;;;2.70;;
18544;SDS011;9402;51.460;7.276;2023-03-23T11:40:57;6.50;;;2.90;;
18544;SDS011;9402;51.460;7.276;2023-03-23T11:43:06;8.10;;;3.60;;
18544;SDS011;9402;51.460;7.276;2023-03-23T11:45:14;9.00;;;4.53;;
18544;SDS011;9402;51.460;7.276;2023-03-23T11:47:21;12.87;;;4.80;;
18544;SDS011;9402;51.460;7.276;2023-03-23T11:49:32;9.33;;;4.80;;
18544;SDS011;9402;51.460;7.276;2023-03-23T11:51:41;7.10;;;4.37;;
18544;SDS011;9402;51.460;7.276;2023-03-23T11:53:49;12.77;;;5.67;;
18544;SDS011;9402;51.460;7.276;2023-03-23T11:55:57;9.43;;;5.17;;
18544;SDS011;9402;51.460;7.276;2023-03-23T11:58:15;5.63;;;3.60;;
18544;SDS011;9402;51.460;7.276;2023-03-23T12:00:19;10.40;;;3.43;;
18544;SDS011;9402;51.460;7.276;2023-03-23T12:02:28;9.50;;;3.40;;
18544;SDS011;9402;51.460;7.276;2023-03-23T12:04:46;5.50;;;2.90;;
18544;SDS011;9402;51.460;7.276;2023-03-23T12:07:02;6.07;;;2.50;;
18544;SDS011;9402;51.460;7.276;2023-03-23T12:09:18;3.50;;;1.80;;
18544;SDS011;9402;51.460;7.276;2023-03-23T12:11:31;8.73;;;2.50;;
18544;SDS011;9402;51.460;7.276;2023-03-23T12:13:42;9.80;;;1.80;;
18544;SDS011;9402;51.460;7.276;2023-03-23T12:15:58;7.70;;;1.67;;
18544;SDS011;9402;51.460;7.276;2023-03-23T12:18:06;5.43;;;1.80;;
18544;SDS011;9402;51.460;7.276;2023-03-23T12:20:18;5.37;;;2.00;;
18544;SDS011;9402;51.460;7.276;2023-03-23T12:22:31;5.73;;;1.17;;
18544;SDS011;9402;51.460;7.276;2023-03-23T12:24:49;5.90;;;1.60;;
18544;SDS011;9402;51.460;7.276;2023-03-23T12:26:58;8.67;;;2.00;;
18544;SDS011;9402;51.460;7.276;2023-03-23T12:29:15;6.57;;;2.03;;
18544;SDS011;9402;51.460;7.276;2023-03-23T12:31:32;4.83;;;1.50;;
18544;SDS011;9402;51.460;7.276;2023-03-23T12:33:41;3.70;;;1.10;;
18544;SDS011;9402;51.460;7.276;2023-03-23T12:35:52;4.73;;;1.50;;
18544;SDS011;9402;51.460;7.276;2023-03-23T12:38:08;5.23;;;1.57;;
18544;SDS011;9402;51.460;7.276;2023-03-23T12:40:50;7.70;;;1.70;;
18544;SDS011;9402;51.460;7.276;2023-03-23T12:42:59;4.63;;;1.63;;
18544;SDS011;9402;51.460;7.276;2023-03-23T12:45:07;4.20;;;1.30;;